Time;durP1;ratioP1;P1;durP2;ratioP2;P2;SDS_P1;SDS_P2;PMS_P1;PMS_P2;Temp;Humidity;BMP_temperature;BMP_pressure;BME280_temperature;BME280_humidity;BME280_pressure;Samples;Min_cycle;Max_cycle;Signal;HPM_P1;HPM_P2
2022/09/02 00:01:01;;;;;;;2.92;1.70;;;14.30;99.90;;;;;;5014718;28;20045;-73
2022/09/02 00:03:32;;;;;;;2.42;2.22;;;14.30;99.90;;;;;;5014921;28;20092;-74
2022/09/02 00:05:59;;;;;;;1.70;1.60;;;14.30;99.90;;;;;;5015000;28;20057;-74
2022/09/02 00:08:25;;;;;;;3.20;1.50;;;14.30;99.90;;;;;;5014396;28;20046;-73
2022/09/02 00:10:51;;;;;;;4.95;1.35;;;14.20;99.90;;;;;;5014442;28;20051;-74
2022/09/02 00:13:18;;;;;;;1.98;1.77;;;14.20;99.90;;;;;;5014459;28;20046;-74
2022/09/02 00:15:46;;;;;;;7.22;1.80;;;14.20;99.90;;;;;;5013509;28;20423;-73
2022/09/02 00:18:12;;;;;;;2.13;1.75;;;14.20;99.90;;;;;;5014221;28;20073;-74
2022/09/02 00:20:41;;;;;;;1.92;1.75;;;14.20;99.90;;;;;;5012805;28;20054;-73
2022/09/02 00:23:07;;;;;;;2.08;1.48;;;14.10;99.90;;;;;;4996550;28;20369;-74
2022/09/02 00:25:35;;;;;;;1.58;1.48;;;14.10;99.90;;;;;;5014207;28;20436;-74
2022/09/02 00:28:01;;;;;;;1.85;1.55;;;14.10;99.90;;;;;;5014495;28;20144;-74
2022/09/02 00:30:27;;;;;;;2.88;1.52;;;14.00;99.90;;;;;;5013472;28;20054;-74
2022/09/02 00:32:53;;;;;;;1.98;1.48;;;14.00;99.90;;;;;;4997106;28;20068;-74
2022/09/02 00:35:19;;;;;;;2.90;1.50;;;14.00;99.90;;;;;;5014361;28;20045;-73
2022/09/02 00:37:45;;;;;;;1.90;1.67;;;14.00;99.90;;;;;;5013912;28;20057;-73
2022/09/02 00:40:11;;;;;;;1.65;1.48;;;13.90;99.90;;;;;;5012740;28;20394;-73
2022/09/02 00:42:38;;;;;;;1.40;1.30;;;13.90;99.90;;;;;;5013715;28;20084;-74
2022/09/02 00:45:05;;;;;;;1.50;1.40;;;13.80;99.90;;;;;;4996463;28;20042;-73
2022/09/02 00:47:32;;;;;;;2.30;1.38;;;13.80;99.90;;;;;;4996390;28;20053;-74
2022/09/02 00:49:58;;;;;;;2.47;1.73;;;13.80;99.90;;;;;;4996289;28;20148;-73
2022/09/02 00:52:42;;;;;;;2.03;1.48;;;13.80;99.90;;;;;;5013721;28;20068;-74
2022/09/02 00:55:13;;;;;;;1.63;1.52;;;13.80;99.90;;;;;;4996362;28;20096;-73
2022/09/02 00:57:43;;;;;;;2.67;1.70;;;13.70;99.90;;;;;;5013013;28;20046;-73
2022/09/02 01:00:13;;;;;;;2.53;1.60;;;13.70;99.90;;;;;;5013487;28;20045;-72
2022/09/02 01:02:40;;;;;;;2.72;1.50;;;13.70;99.90;;;;;;5013565;28;20049;-74
2022/09/02 01:05:10;;;;;;;4.10;1.80;;;13.60;99.90;;;;;;5013413;28;20112;-73
2022/09/02 01:07:40;;;;;;;2.42;1.92;;;13.60;99.90;;;;;;5013499;28;20054;-73
2022/09/02 01:10:12;;;;;;;1.67;1.58;;;13.60;99.90;;;;;;4996099;28;20533;-73
2022/09/02 01:12:38;;;;;;;1.67;1.50;;;13.60;99.90;;;;;;5013516;28;20041;-73
2022/09/02 01:15:06;;;;;;;1.50;1.40;;;13.50;99.90;;;;;;5013139;28;20072;-73
2022/09/02 01:17:33;;;;;;;1.63;1.52;;;13.50;99.90;;;;;;4996052;28;20432;-73
2022/09/02 01:20:05;;;;;;;1.67;1.58;;;13.50;99.90;;;;;;4979647;28;20058;-74
2022/09/02 01:22:32;;;;;;;1.90;1.73;;;13.50;99.90;;;;;;5011700;28;20570;-74
2022/09/02 01:25:06;;;;;;;1.83;1.73;;;13.50;99.90;;;;;;5013192;28;20053;-73
2022/09/02 01:27:32;;;;;;;1.80;1.70;;;13.40;99.90;;;;;;5013232;28;20050;-73
2022/09/02 01:29:59;;;;;;;2.50;1.75;;;13.40;99.90;;;;;;5012922;28;20045;-73
2022/09/02 01:32:27;;;;;;;1.70;1.60;;;13.50;99.90;;;;;;5013546;28;20042;-73
2022/09/02 01:34:54;;;;;;;2.03;1.52;;;13.40;99.90;;;;;;5013270;28;20046;-73
2022/09/02 01:37:20;;;;;;;2.72;2.08;;;13.30;99.90;;;;;;5012697;28;20504;-74
2022/09/02 01:39:47;;;;;;;1.73;1.63;;;13.30;99.90;;;;;;5013133;28;20045;-73
2022/09/02 01:42:14;;;;;;;1.70;1.48;;;13.30;99.90;;;;;;5012829;28;20481;-73
2022/09/02 01:44:42;;;;;;;1.80;1.70;;;13.30;99.90;;;;;;5012894;28;20042;-74
2022/09/02 01:47:19;;;;;;;4.68;1.83;;;13.20;99.90;;;;;;5012782;28;20585;-73
2022/09/02 01:49:45;;;;;;;2.53;1.70;;;13.30;99.90;;;;;;5013048;28;20046;-73
2022/09/02 01:52:11;;;;;;;2.78;1.95;;;13.20;99.90;;;;;;5013246;28;20426;-73
2022/09/02 01:54:38;;;;;;;3.20;2.15;;;13.20;99.90;;;;;;5013402;28;20064;-73
2022/09/02 01:57:04;;;;;;;2.38;1.92;;;13.20;99.90;;;;;;5012764;28;20054;-73
2022/09/02 01:59:30;;;;;;;2.45;1.75;;;13.20;99.90;;;;;;5013157;28;20042;-74
2022/09/02 02:01:55;;;;;;;3.03;1.90;;;13.10;99.90;;;;;;5012652;28;20038;-73
2022/09/02 02:04:23;;;;;;;3.65;2.20;;;13.10;99.90;;;;;;5013180;28;20061;-74
2022/09/02 02:06:50;;;;;;;3.70;2.03;;;13.10;99.90;;;;;;5013181;28;20068;-72
2022/09/02 02:09:16;;;;;;;1.85;1.65;;;13.00;99.90;;;;;;5015312;28;20382;-73
2022/09/02 02:11:42;;;;;;;2.33;2.08;;;13.00;99.90;;;;;;5016733;28;20133;-73
2022/09/02 02:14:08;;;;;;;3.45;1.90;;;13.00;99.90;;;;;;4999267;28;20450;-74
2022/09/02 02:16:34;;;;;;;1.98;1.70;;;12.90;99.90;;;;;;5016478;28;20052;-73
2022/09/02 02:19:00;;;;;;;2.85;1.95;;;12.90;99.90;;;;;;4999527;28;20132;-73
2022/09/02 02:21:26;;;;;;;2.38;1.75;;;12.90;99.90;;;;;;5016564;28;20560;-72
2022/09/02 02:23:52;;;;;;;2.03;1.92;;;12.90;99.90;;;;;;4998880;28;20084;-72
2022/09/02 02:26:18;;;;;;;2.72;2.40;;;12.90;99.90;;;;;;5016343;28;20060;-73
2022/09/02 02:28:44;;;;;;;2.97;2.65;;;12.80;99.90;;;;;;5016833;28;20046;-72
2022/09/02 02:31:09;;;;;;;2.00;1.90;;;12.80;99.90;;;;;;5015969;28;20397;-73
2022/09/02 02:33:37;;;;;;;2.25;1.90;;;12.80;99.90;;;;;;5016586;28;20046;-73
2022/09/02 02:36:04;;;;;;;3.13;1.95;;;12.80;99.90;;;;;;5016318;28;20107;-73
2022/09/02 02:38:32;;;;;;;2.38;2.10;;;12.80;99.90;;;;;;5016366;28;20432;-73
2022/09/02 02:40:58;;;;;;;3.08;1.85;;;12.80;99.90;;;;;;5016157;28;20342;-72
2022/09/02 02:43:25;;;;;;;3.53;2.10;;;12.70;99.90;;;;;;5016129;28;20050;-72
2022/09/02 02:45:52;;;;;;;3.20;1.67;;;12.70;99.90;;;;;;5015973;28;20049;-72
2022/09/02 02:48:18;;;;;;;3.75;1.90;;;12.70;99.90;;;;;;5016326;28;20041;-72
2022/09/02 02:50:44;;;;;;;1.83;1.73;;;12.70;99.90;;;;;;5014827;28;20041;-72
2022/09/02 02:53:11;;;;;;;3.40;2.22;;;12.60;99.90;;;;;;5016497;28;20479;-72
2022/09/02 02:55:37;;;;;;;2.22;2.03;;;12.60;99.90;;;;;;5015815;28;20116;-74
2022/09/02 02:58:03;;;;;;;1.98;1.88;;;12.60;99.90;;;;;;5015563;28;20050;-72
2022/09/02 03:00:31;;;;;;;2.22;2.10;;;12.60;99.90;;;;;;5015843;28;20042;-72
2022/09/02 03:03:03;;;;;;;2.22;2.10;;;12.60;99.90;;;;;;5015730;28;20115;-72
2022/09/02 03:05:29;;;;;;;2.70;1.85;;;12.60;99.90;;;;;;5016082;28;20050;-72
2022/09/02 03:07:55;;;;;;;2.67;1.70;;;12.60;99.90;;;;;;5015570;28;20496;-72
2022/09/02 03:10:22;;;;;;;1.88;1.75;;;12.60;99.90;;;;;;5015475;28;20041;-72
2022/09/02 03:12:49;;;;;;;2.15;1.95;;;12.60;99.90;;;;;;5015260;28;20489;-73
2022/09/02 03:15:17;;;;;;;2.25;2.00;;;12.50;99.90;;;;;;5015448;28;20049;-72
2022/09/02 03:17:44;;;;;;;3.13;2.05;;;12.50;99.90;;;;;;5015486;28;20042;-72
2022/09/02 03:20:11;;;;;;;2.53;1.70;;;12.40;99.90;;;;;;5014894;28;20054;-72
2022/09/02 03:22:37;;;;;;;4.80;2.22;;;12.40;99.90;;;;;;5015380;28;20089;-73
2022/09/02 03:25:06;;;;;;;2.17;2.08;;;12.40;99.90;;;;;;4998062;28;20104;-72
2022/09/02 03:27:33;;;;;;;2.60;1.65;;;12.30;99.90;;;;;;5015364;28;20397;-73
2022/09/02 03:29:59;;;;;;;2.25;1.73;;;12.30;99.90;;;;;;5015256;28;20128;-73
2022/09/02 03:32:26;;;;;;;2.08;1.80;;;12.30;99.90;;;;;;4981943;28;20100;-72
2022/09/02 03:34:53;;;;;;;2.42;2.22;;;12.20;99.90;;;;;;5015518;28;20046;-72
2022/09/02 03:37:19;;;;;;;1.80;1.70;;;12.20;99.90;;;;;;5015646;28;20062;-72
2022/09/02 03:39:45;;;;;;;2.60;1.80;;;12.10;99.90;;;;;;4997974;28;20042;-72
2022/09/02 03:42:11;;;;;;;2.13;1.92;;;12.10;99.90;;;;;;5014777;28;20057;-73
2022/09/02 03:44:39;;;;;;;3.30;2.03;;;12.10;99.90;;;;;;5014260;28;20053;-73
2022/09/02 03:47:05;;;;;;;1.90;1.80;;;12.10;99.90;;;;;;5015344;28;20066;-73
2022/09/02 03:49:30;;;;;;;3.72;1.95;;;12.00;99.90;;;;;;5014529;28;20475;-73
2022/09/02 03:51:56;;;;;;;2.42;2.22;;;12.00;99.90;;;;;;5014874;28;20121;-72
2022/09/02 03:54:22;;;;;;;3.40;2.28;;;11.90;99.90;;;;;;4997590;28;20053;-73
2022/09/02 03:56:47;;;;;;;2.05;1.88;;;11.90;99.90;;;;;;5014825;28;20054;-72
2022/09/02 03:59:13;;;;;;;3.55;2.15;;;11.90;99.90;;;;;;5015106;28;20436;-72
2022/09/02 04:01:39;;;;;;;2.38;2.00;;;11.90;99.90;;;;;;5014672;28;20567;-72
2022/09/02 04:04:05;;;;;;;4.35;2.40;;;11.90;99.90;;;;;;5014870;28;20489;-72
2022/09/02 04:06:31;;;;;;;2.90;2.47;;;11.90;99.90;;;;;;5014546;28;20049;-73
2022/09/02 04:08:57;;;;;;;2.60;2.40;;;11.80;99.90;;;;;;5014892;28;20121;-72
2022/09/02 04:11:23;;;;;;;2.47;2.30;;;11.80;99.90;;;;;;5014862;28;20470;-74
2022/09/02 04:13:50;;;;;;;3.00;2.00;;;11.80;99.90;;;;;;5014336;28;20050;-72
2022/09/02 04:16:21;;;;;;;3.20;2.45;;;11.80;99.90;;;;;;5014675;28;20046;-72
2022/09/02 04:18:47;;;;;;;2.15;2.00;;;11.70;99.90;;;;;;5014378;28;20129;-72
2022/09/02 04:21:13;;;;;;;2.25;2.10;;;11.60;99.90;;;;;;5009567;28;20101;-72
2022/09/02 04:23:39;;;;;;;3.47;2.50;;;11.70;99.90;;;;;;4994693;28;20046;-72
2022/09/02 04:26:08;;;;;;;2.63;2.35;;;11.70;99.90;;;;;;5009733;28;20121;-73
2022/09/02 04:28:34;;;;;;;2.50;2.30;;;11.60;99.90;;;;;;4994439;28;20046;-73
2022/09/02 04:31:06;;;;;;;4.15;2.30;;;11.60;99.90;;;;;;4993938;28;20468;-72
2022/09/02 04:33:33;;;;;;;3.20;2.22;;;11.60;99.90;;;;;;4994839;28;20043;-72
2022/09/02 04:36:02;;;;;;;5.30;2.50;;;11.60;99.90;;;;;;4994372;28;20053;-72
2022/09/02 04:38:28;;;;;;;3.35;2.40;;;11.50;99.90;;;;;;5009469;28;20089;-73
2022/09/02 04:40:53;;;;;;;2.50;2.30;;;11.50;99.90;;;;;;5009795;28;20057;-73
2022/09/02 04:43:19;;;;;;;2.42;1.90;;;11.50;99.90;;;;;;4994330;28;20165;-73
2022/09/02 04:45:45;;;;;;;2.00;1.83;;;11.60;99.90;;;;;;4994513;28;20097;-73
2022/09/02 04:48:11;;;;;;;2.38;2.17;;;11.60;99.90;;;;;;4994251;28;20078;-73
2022/09/02 04:50:41;;;;;;;2.50;2.30;;;11.60;99.90;;;;;;4994224;28;20112;-72
2022/09/02 04:53:07;;;;;;;4.00;3.33;;;11.60;99.90;;;;;;4994210;28;20058;-73
2022/09/02 04:55:33;;;;;;;2.40;2.00;;;11.50;99.90;;;;;;4994405;28;20049;-72
2022/09/02 04:57:58;;;;;;;10.27;2.50;;;11.50;99.90;;;;;;4993883;28;20049;-72
2022/09/02 05:00:24;;;;;;;3.83;2.30;;;11.50;99.90;;;;;;4993750;28;20043;-73
2022/09/02 05:02:52;;;;;;;2.95;2.67;;;11.50;99.90;;;;;;4993330;28;20049;-73
2022/09/02 05:05:18;;;;;;;2.88;2.67;;;11.50;99.90;;;;;;4992768;28;20082;-73
2022/09/02 05:07:43;;;;;;;3.08;2.60;;;11.50;99.90;;;;;;4994211;28;20173;-73
2022/09/02 05:10:14;;;;;;;3.78;2.30;;;11.50;99.90;;;;;;4993518;28;20046;-73
2022/09/02 05:12:40;;;;;;;2.75;2.40;;;11.50;99.90;;;;;;4994359;28;20058;-73
2022/09/02 05:15:08;;;;;;;2.80;2.50;;;11.50;99.90;;;;;;4992687;28;20054;-74
2022/09/02 05:17:35;;;;;;;2.75;2.55;;;11.50;99.90;;;;;;4993537;28;20054;-73
2022/09/02 05:20:03;;;;;;;3.50;2.83;;;11.50;99.90;;;;;;5002777;28;20612;-73
2022/09/02 05:22:29;;;;;;;2.38;2.15;;;11.50;99.90;;;;;;5013528;28;20057;-73
2022/09/02 05:24:55;;;;;;;3.38;2.50;;;11.60;99.90;;;;;;5013319;28;20037;-74
2022/09/02 05:27:22;;;;;;;3.38;3.13;;;11.60;99.90;;;;;;5013667;28;20072;-73
2022/09/02 05:29:48;;;;;;;2.60;2.40;;;11.60;99.90;;;;;;5012730;28;20599;-72
2022/09/02 05:32:14;;;;;;;4.30;2.42;;;11.60;99.90;;;;;;5013194;28;20046;-74
2022/09/02 05:34:40;;;;;;;5.07;3.42;;;11.60;99.90;;;;;;4996248;28;20512;-72
2022/09/02 05:37:06;;;;;;;3.22;2.70;;;11.70;99.90;;;;;;4996009;28;20136;-72
2022/09/02 05:39:32;;;;;;;3.78;2.58;;;11.70;99.90;;;;;;5013280;28;20042;-73
2022/09/02 05:41:57;;;;;;;4.40;2.97;;;11.80;99.90;;;;;;5012812;28;20474;-72
2022/09/02 05:44:24;;;;;;;2.95;2.75;;;11.80;99.90;;;;;;5012195;28;20133;-72
2022/09/02 05:46:50;;;;;;;3.10;2.63;;;11.80;99.90;;;;;;5012805;28;20108;-72
2022/09/02 05:49:16;;;;;;;3.65;2.33;;;11.90;99.90;;;;;;4995605;28;20478;-72
2022/09/02 05:51:42;;;;;;;3.67;2.42;;;11.90;99.90;;;;;;4995526;28;20046;-72
2022/09/02 05:54:17;;;;;;;3.20;3.00;;;12.00;99.90;;;;;;4995627;28;20061;-72
2022/09/02 05:56:45;;;;;;;3.13;2.88;;;12.00;99.90;;;;;;5013035;28;20046;-72
2022/09/02 05:59:10;;;;;;;2.95;2.45;;;12.10;99.90;;;;;;5012730;28;20116;-72
2022/09/02 06:01:36;;;;;;;3.45;2.75;;;12.20;99.90;;;;;;4995189;28;20570;-72
2022/09/02 06:04:04;;;;;;;3.92;3.00;;;12.30;99.90;;;;;;4995424;28;20124;-72
2022/09/02 06:06:31;;;;;;;2.83;2.60;;;12.40;99.90;;;;;;4979636;28;20049;-72
2022/09/02 06:08:58;;;;;;;3.22;2.40;;;12.40;99.90;;;;;;4995228;28;20358;-72
2022/09/02 06:11:24;;;;;;;3.50;3.20;;;12.60;99.90;;;;;;5012551;28;20052;-72
2022/09/02 06:13:51;;;;;;;3.78;3.38;;;12.60;99.90;;;;;;5011238;28;20050;-72
2022/09/02 06:16:19;;;;;;;3.67;2.75;;;12.70;99.90;;;;;;4979221;28;20053;-72
2022/09/02 06:18:46;;;;;;;3.30;2.83;;;12.80;99.90;;;;;;4994621;28;20061;-72
2022/09/02 06:21:13;;;;;;;5.25;3.55;;;12.90;99.90;;;;;;4994717;28;20453;-73
2022/09/02 06:23:40;;;;;;;4.30;2.90;;;13.00;99.90;;;;;;5012265;28;20037;-72
2022/09/02 06:26:07;;;;;;;3.55;3.10;;;13.10;99.90;;;;;;5012299;28;20085;-72
2022/09/02 06:28:34;;;;;;;3.95;3.50;;;13.20;99.90;;;;;;5012235;28;20049;-71
2022/09/02 06:31:05;;;;;;;5.75;3.83;;;13.30;99.90;;;;;;5012392;28;20051;-72
2022/09/02 06:33:31;;;;;;;3.50;3.20;;;13.40;99.90;;;;;;5012400;28;20054;-71
2022/09/02 06:35:57;;;;;;;7.28;3.20;;;13.50;99.90;;;;;;5012704;28;20049;-72
2022/09/02 06:38:22;;;;;;;5.28;3.50;;;13.60;99.90;;;;;;5012404;28;20096;-68
2022/09/02 06:40:54;;;;;;;3.15;2.83;;;13.80;99.90;;;;;;5012344;28;20050;-67
2022/09/02 06:43:20;;;;;;;4.00;3.15;;;13.90;99.90;;;;;;5012576;28;20053;-69
2022/09/02 06:45:45;;;;;;;7.13;3.30;;;14.00;99.90;;;;;;5012567;28;20046;-68
2022/09/02 06:48:12;;;;;;;3.78;3.00;;;14.10;99.90;;;;;;5012246;28;20057;-71
2022/09/02 06:50:40;;;;;;;3.50;3.20;;;14.20;99.90;;;;;;4994910;28;20042;-68
2022/09/02 06:53:07;;;;;;;3.08;2.78;;;14.30;99.90;;;;;;5011922;28;20088;-67
2022/09/02 06:55:38;;;;;;;3.50;2.90;;;14.60;99.90;;;;;;5014982;28;20049;-71
2022/09/02 06:58:04;;;;;;;3.80;2.88;;;14.80;99.90;;;;;;4998358;28;20053;-72
2022/09/02 07:00:30;;;;;;;3.45;2.60;;;14.80;99.90;;;;;;5015980;28;20428;-72
2022/09/02 07:05:41;;;;;;;4.53;2.65;;;15.20;99.90;;;;;;5001220;28;20076;-71
2022/09/02 07:08:07;;;;;;;2.83;2.28;;;15.40;99.90;;;;;;5015365;28;20454;-72
2022/09/02 07:10:38;;;;;;;3.58;2.30;;;15.60;99.90;;;;;;4997942;28;20045;-72
2022/09/02 07:13:04;;;;;;;3.35;2.58;;;15.90;99.90;;;;;;5015725;28;20088;-72
2022/09/02 07:15:30;;;;;;;4.25;2.38;;;16.10;99.90;;;;;;5015270;28;20100;-72
2022/09/02 07:17:56;;;;;;;4.43;2.33;;;16.40;99.90;;;;;;5015218;28;20046;-72
2022/09/02 07:20:22;;;;;;;2.78;2.25;;;17.50;99.90;;;;;;5014834;28;20127;-72
2022/09/02 07:22:48;;;;;;;2.13;1.85;;;19.30;99.90;;;;;;4997569;28;20049;-72
2022/09/02 07:25:15;;;;;;;2.63;1.88;;;20.80;99.90;;;;;;4998244;28;20065;-73
2022/09/02 07:27:42;;;;;;;4.03;2.00;;;22.10;98.00;;;;;;5015196;28;20049;-73
2022/09/02 07:30:10;;;;;;;1.60;1.50;;;23.10;96.10;;;;;;5014985;28;20489;-72
2022/09/02 07:32:36;;;;;;;2.97;2.28;;;23.80;94.10;;;;;;5015031;28;20121;-72
2022/09/02 07:35:05;;;;;;;1.90;1.73;;;24.40;92.60;;;;;;5014835;28;20049;-71
2022/09/02 07:37:33;;;;;;;3.15;1.90;;;24.80;90.70;;;;;;5013760;28;20050;-73
2022/09/02 07:40:00;;;;;;;3.10;2.13;;;25.20;90.10;;;;;;4997490;28;20065;-72
2022/09/02 07:42:26;;;;;;;5.65;2.03;;;25.80;88.20;;;;;;5014736;28;20061;-72
2022/09/02 07:44:51;;;;;;;3.33;1.67;;;26.10;87.10;;;;;;5015104;28;20050;-73
2022/09/02 07:47:17;;;;;;;2.90;2.17;;;26.40;86.10;;;;;;4997541;28;20457;-72
2022/09/02 07:49:43;;;;;;;1.67;1.38;;;26.70;84.70;;;;;;4997175;28;20071;-71
2022/09/02 07:52:08;;;;;;;3.40;1.60;;;26.80;83.00;;;;;;5014647;28;20050;-72
2022/09/02 07:54:34;;;;;;;2.53;1.45;;;27.10;81.90;;;;;;5014702;28;20450;-73
2022/09/02 07:57:00;;;;;;;4.80;1.52;;;27.30;81.20;;;;;;5014416;28;20128;-74
2022/09/02 07:59:25;;;;;;;2.33;1.80;;;27.50;80.80;;;;;;5014334;28;20127;-72
2022/09/02 08:01:52;;;;;;;2.90;1.63;;;27.80;80.30;;;;;;4997012;28;20442;-73
2022/09/02 08:04:22;;;;;;;3.60;1.60;;;28.10;79.10;;;;;;5014546;28;20056;-73
2022/09/02 08:06:49;;;;;;;1.52;1.42;;;28.30;77.70;;;;;;5013822;28;20132;-74
2022/09/02 08:09:15;;;;;;;3.22;1.63;;;28.40;77.10;;;;;;5014311;28;20046;-76
2022/09/02 08:11:44;;;;;;;1.73;1.55;;;28.40;76.10;;;;;;5014052;28;20498;-73
2022/09/02 08:14:14;;;;;;;2.33;1.65;;;28.40;75.60;;;;;;5014407;28;20050;-74
2022/09/02 08:16:40;;;;;;;3.83;1.83;;;28.20;73.80;;;;;;5014185;28;20050;-74
2022/09/02 08:19:07;;;;;;;2.85;1.65;;;28.00;73.60;;;;;;5014256;28;20045;-72
2022/09/02 08:21:33;;;;;;;2.75;1.80;;;27.80;73.40;;;;;;5014280;28;20446;-74
2022/09/02 08:23:59;;;;;;;1.42;1.33;;;27.80;73.50;;;;;;5014417;28;20057;-73
2022/09/02 08:26:27;;;;;;;2.58;1.38;;;28.20;73.80;;;;;;5014219;28;20093;-75
2022/09/02 08:28:55;;;;;;;2.22;1.70;;;28.60;73.50;;;;;;4996707;28;20077;-74
2022/09/02 08:31:21;;;;;;;4.43;1.83;;;28.60;72.50;;;;;;4997388;28;20046;-73
2022/09/02 08:33:47;;;;;;;3.00;1.50;;;28.50;72.10;;;;;;5014029;28;20050;-73
2022/09/02 08:36:14;;;;;;;1.88;1.52;;;28.40;71.00;;;;;;4996797;28;20046;-73
2022/09/02 08:38:41;;;;;;;1.58;1.10;;;28.40;71.10;;;;;;5014466;28;20104;-74
2022/09/02 08:41:21;;;;;;;2.28;1.48;;;28.60;71.10;;;;;;5014293;28;20155;-74
2022/09/02 08:43:48;;;;;;;2.90;1.50;;;28.60;70.00;;;;;;4996795;28;20049;-74
2022/09/02 08:46:17;;;;;;;3.70;1.40;;;28.60;71.20;;;;;;4995808;28;20448;-74
2022/09/02 08:48:56;;;;;;;2.75;1.33;;;28.80;70.00;;;;;;5013669;28;20050;-73
2022/09/02 08:51:32;;;;;;;2.08;1.38;;;28.90;69.20;;;;;;5013728;28;20560;-74
2022/09/02 08:54:23;;;;;;;2.97;1.38;;;28.80;69.60;;;;;;5014133;28;20112;-73
2022/09/02 08:56:50;;;;;;;1.30;1.23;;;28.90;68.40;;;;;;5013573;28;20054;-73
2022/09/02 08:59:24;;;;;;;1.98;1.33;;;29.20;69.50;;;;;;5012569;28;20061;-74
2022/09/02 09:01:58;;;;;;;2.00;1.58;;;29.00;68.90;;;;;;5013621;28;20049;-77
2022/09/02 09:04:30;;;;;;;3.58;1.63;;;29.10;68.00;;;;;;5013550;28;20054;-76
2022/09/02 09:07:34;;;;;;;2.03;1.50;;;28.90;69.00;;;;;;5013777;28;20541;-72
2022/09/02 09:10:08;;;;;;;2.70;1.67;;;29.00;68.60;;;;;;4991111;28;20521;-74
2022/09/02 09:12:39;;;;;;;2.33;1.20;;;29.00;67.60;;;;;;5009753;28;20356;-73
2022/09/02 09:15:08;;;;;;;2.80;1.73;;;29.20;68.20;;;;;;5013677;28;20045;-73
2022/09/02 09:17:47;;;;;;;2.47;1.35;;;29.20;67.40;;;;;;5013183;28;20134;-75
2022/09/02 09:20:23;;;;;;;2.67;1.70;;;29.30;67.10;;;;;;5012783;28;20555;-72
2022/09/02 09:22:55;;;;;;;3.00;1.75;;;29.40;66.80;;;;;;5013281;28;20050;-73
2022/09/02 09:25:28;;;;;;;1.92;1.48;;;29.40;66.90;;;;;;5013396;28;20042;-72
2022/09/02 09:27:55;;;;;;;3.47;1.50;;;29.20;67.00;;;;;;5013865;28;20064;-73
2022/09/02 09:30:22;;;;;;;4.40;2.08;;;29.00;66.90;;;;;;5013059;28;20050;-71
2022/09/02 09:32:56;;;;;;;2.03;1.30;;;29.20;66.50;;;;;;4996332;28;20073;-71
2022/09/02 09:35:22;;;;;;;2.67;1.50;;;29.20;65.90;;;;;;4996329;28;20054;-73
2022/09/02 09:37:53;;;;;;;4.53;1.38;;;29.30;65.90;;;;;;5013344;28;20057;-71
2022/09/02 09:40:21;;;;;;;4.68;2.33;;;29.40;65.80;;;;;;5013109;28;20052;-72
2022/09/02 09:43:04;;;;;;;2.63;1.65;;;29.30;65.10;;;;;;5012901;28;20507;-72
2022/09/02 09:45:44;;;;;;;4.22;3.05;;;29.60;65.50;;;;;;4995796;28;20057;-72
2022/09/02 09:48:32;;;;;;;2.05;1.63;;;29.50;65.00;;;;;;5012402;28;20496;-72
2022/09/02 09:50:58;;;;;;;2.38;1.50;;;29.60;64.90;;;;;;5012832;28;20054;-72
2022/09/02 09:53:27;;;;;;;0.90;0.90;;;29.40;64.90;;;;;;4995673;28;20045;-72
2022/09/02 09:56:06;;;;;;;4.78;1.70;;;29.50;64.50;;;;;;5013031;28;20046;-72
2022/09/02 09:58:44;;;;;;;1.52;1.42;;;29.60;64.10;;;;;;5012744;28;20085;-72
2022/09/02 10:01:23;;;;;;;2.80;1.33;;;29.30;63.50;;;;;;4995673;28;20061;-73
2022/09/02 10:03:59;;;;;;;3.75;2.17;;;29.50;63.70;;;;;;5012598;28;20540;-71
2022/09/02 10:06:31;;;;;;;1.63;1.30;;;29.50;64.00;;;;;;5012562;28;20058;-74
2022/09/02 10:09:06;;;;;;;2.40;1.40;;;29.50;62.80;;;;;;5012699;28;20041;-74
2022/09/02 10:11:35;;;;;;;2.63;1.80;;;29.60;63.30;;;;;;5012460;28;20436;-73
2022/09/02 10:14:07;;;;;;;3.00;1.58;;;29.60;63.10;;;;;;4995773;28;20046;-72
2022/09/02 10:17:07;;;;;;;2.20;1.27;;;29.70;63.30;;;;;;5012531;28;20050;-72
2022/09/02 10:19:44;;;;;;;2.65;1.35;;;29.70;62.10;;;;;;5012459;28;20324;-72
2022/09/02 10:22:15;;;;;;;1.67;1.40;;;29.90;62.70;;;;;;5012573;28;20061;-73
2022/09/02 10:24:41;;;;;;;1.80;1.23;;;30.10;63.60;;;;;;5012502;28;20104;-73
2022/09/02 10:27:14;;;;;;;2.88;2.25;;;30.20;62.80;;;;;;5012409;28;20046;-73
2022/09/02 10:30:00;;;;;;;2.45;1.10;;;29.90;61.30;;;;;;4996187;28;20042;-72
2022/09/02 10:32:35;;;;;;;7.90;1.60;;;30.00;62.20;;;;;;5011936;28;20116;-72
2022/09/02 10:35:10;;;;;;;3.35;1.50;;;30.40;62.10;;;;;;5016338;28;20130;-72
2022/09/02 10:37:42;;;;;;;1.67;1.55;;;30.30;60.90;;;;;;5016468;28;20053;-72
2022/09/02 10:40:15;;;;;;;;;;;30.30;61.40;;;;;;5016560;28;20104;-73
2022/09/02 10:43:05;;;;;;;3.38;1.48;;;30.30;62.00;;;;;;4998800;28;20012;-72
2022/09/02 10:45:58;;;;;;;2.17;1.25;;;30.00;61.00;;;;;;4996567;28;20065;-73
2022/09/02 10:48:48;;;;;;;2.28;1.55;;;29.40;60.40;;;;;;5014195;28;20061;-74
2022/09/02 10:51:32;;;;;;;3.13;1.10;;;29.00;61.40;;;;;;5016477;28;20093;-74
2022/09/02 10:54:13;;;;;;;2.42;1.30;;;28.40;60.90;;;;;;5016257;28;20046;-73
2022/09/02 10:56:50;;;;;;;2.78;1.15;;;27.60;61.10;;;;;;4999177;28;20421;-72
2022/09/02 10:59:27;;;;;;;2.83;1.33;;;27.00;61.60;;;;;;5015909;28;20041;-73
2022/09/02 11:02:07;;;;;;;2.17;1.13;;;26.50;61.30;;;;;;5014865;28;20096;-73
2022/09/02 11:04:59;;;;;;;4.22;1.33;;;26.20;61.80;;;;;;5016137;28;20077;-72
2022/09/02 11:07:53;;;;;;;2.15;1.35;;;25.90;62.20;;;;;;5014456;28;20053;-72
2022/09/02 11:10:22;;;;;;;2.88;1.40;;;25.70;63.40;;;;;;5016313;28;20149;-72
2022/09/02 11:12:58;;;;;;;3.28;1.17;;;25.60;62.50;;;;;;5015196;28;20448;-73
2022/09/02 11:15:48;;;;;;;2.30;1.40;;;25.50;62.90;;;;;;5016031;28;20046;-73
2022/09/02 11:18:24;;;;;;;4.13;1.20;;;25.40;63.50;;;;;;4998202;28;20053;-74
2022/09/02 11:21:09;;;;;;;1.58;1.20;;;25.30;62.60;;;;;;5016049;28;20045;-72
2022/09/02 11:23:44;;;;;;;2.53;1.83;;;25.30;63.30;;;;;;4998566;28;20125;-74
2022/09/02 11:26:17;;;;;;;2.10;1.38;;;25.20;63.00;;;;;;5015446;28;20571;-72
2022/09/02 11:28:53;;;;;;;1.98;1.00;;;25.20;62.90;;;;;;5015612;28;20052;-72
2022/09/02 11:31:26;;;;;;;3.97;1.50;;;25.20;63.00;;;;;;5015224;28;20133;-72
2022/09/02 11:34:09;;;;;;;2.88;1.38;;;25.20;62.90;;;;;;5015112;28;20125;-73
2022/09/02 11:36:39;;;;;;;2.65;1.20;;;25.20;62.50;;;;;;5014676;28;20071;-73
2022/09/02 11:39:16;;;;;;;4.88;1.90;;;25.20;61.80;;;;;;5015070;28;20092;-73
2022/09/02 11:41:44;;;;;;;1.80;1.30;;;25.20;62.20;;;;;;5014199;28;20121;-74
2022/09/02 11:44:28;;;;;;;1.50;1.40;;;25.20;62.00;;;;;;5014980;28;20133;-75
2022/09/02 11:47:19;;;;;;;1.00;1.00;;;25.20;62.00;;;;;;4997298;28;20053;-73
2022/09/02 11:50:06;;;;;;;5.18;1.30;;;25.20;62.40;;;;;;5014919;28;20038;-72
2022/09/02 11:52:50;;;;;;;1.70;1.10;;;25.30;62.40;;;;;;5015048;28;20450;-73
2022/09/02 11:55:36;;;;;;;2.72;1.38;;;25.40;62.20;;;;;;5015091;28;20050;-73
2022/09/02 11:58:02;;;;;;;2.85;1.10;;;25.50;61.30;;;;;;5015057;28;20066;-72
2022/09/02 12:00:31;;;;;;;1.98;1.00;;;25.40;61.20;;;;;;5015341;28;20053;-72
2022/09/02 12:03:21;;;;;;;1.38;1.27;;;25.50;61.10;;;;;;5014793;28;20081;-72
2022/09/02 12:05:50;;;;;;;3.33;1.45;;;25.50;61.30;;;;;;4997622;28;20052;-72
2022/09/02 12:08:33;;;;;;;2.10;1.05;;;25.60;61.30;;;;;;5014822;28;20114;-73
2022/09/02 12:11:02;;;;;;;1.45;1.20;;;25.70;61.10;;;;;;5014827;28;20042;-72
2022/09/02 12:13:34;;;;;;;1.83;1.20;;;25.70;60.90;;;;;;4997046;28;20456;-73
2022/09/02 12:16:11;;;;;;;1.93;1.20;;;25.80;60.40;;;;;;5014943;28;20046;-73
2022/09/02 12:18:41;;;;;;;5.22;1.20;;;25.80;59.80;;;;;;5014887;28;20064;-73
2022/09/02 12:21:16;;;;;;;1.95;1.25;;;25.90;60.50;;;;;;5013889;28;20117;-73
2022/09/02 12:23:47;;;;;;;1.90;1.70;;;25.90;60.50;;;;;;4997689;28;20108;-73
2022/09/02 12:26:15;;;;;;;3.13;1.10;;;26.10;60.70;;;;;;5014242;28;20103;-73
2022/09/02 12:28:45;;;;;;;2.03;1.40;;;26.20;60.70;;;;;;5014835;28;20142;-72
2022/09/02 12:31:32;;;;;;;3.08;1.15;;;26.30;60.10;;;;;;5014175;28;20050;-72
2022/09/02 12:34:01;;;;;;;1.23;0.90;;;26.40;60.20;;;;;;5014145;28;20049;-72
2022/09/02 12:36:36;;;;;;;1.73;1.27;;;26.30;60.20;;;;;;5014450;28;20058;-73
2022/09/02 12:39:23;;;;;;;2.85;1.40;;;26.30;60.10;;;;;;5014615;28;20042;-72
2022/09/02 12:41:55;;;;;;;2.13;0.88;;;26.20;59.70;;;;;;5012787;28;20053;-72
2022/09/02 12:44:46;;;;;;;3.85;1.20;;;26.20;59.60;;;;;;5014300;28;20054;-73
2022/09/02 12:47:23;;;;;;;2.17;1.25;;;26.10;59.60;;;;;;5013819;28;20050;-74
2022/09/02 12:50:03;;;;;;;3.47;1.20;;;26.10;59.50;;;;;;5014360;28;20124;-72
2022/09/02 12:52:41;;;;;;;4.55;1.20;;;26.20;59.30;;;;;;5014080;28;20099;-72
2022/09/02 12:55:13;;;;;;;3.15;1.30;;;26.10;59.40;;;;;;5013728;28;20129;-73
2022/09/02 12:57:47;;;;;;;2.37;1.40;;;26.20;59.50;;;;;;4996170;28;20445;-72
2022/09/02 13:00:50;;;;;;;3.00;1.30;;;26.20;59.00;;;;;;5013727;28;20136;-73
2022/09/02 13:03:45;;;;;;;4.13;1.23;;;26.20;59.50;;;;;;4998796;28;20060;-72
2022/09/02 13:06:24;;;;;;;3.28;1.05;;;26.20;59.80;;;;;;5013541;28;20057;-74